Smithfield, Nebraska
Current Conditions -  °F | °C
As of 10:35 PM on Sunday 21 Dec 2014 (Local Time) from KLXN Reporting Station
Overcast Overcast  
Wind Chill: 31°   Ceiling: 700
Heat Index: 39°   Visibility: 7mi
Dew Point: 37°   Wind: 14mph
Humidity: 93%   Direction: 180°S
Pressure: 29.49"   Gusts: NA
Location:  40.57°N, 99.74°W
Report Text: KLXN 220435Z AUTO 18012KT 7SM OVC007 04/03 A2949 RMK AO2 T00400029
Loading
Personal Weather Stations






























Interactive Weather Map New forecast layout! Learn more

10-Day Weather Forecast

Advertisements
Track Severe Weather on mobile